Time;durP1;ratioP1;P1;durP2;ratioP2;P2;SDS_P1;SDS_P2;PMS_P1;PMS_P2;Temp;Humidity;BMP_temperature;BMP_pressure;BME280_temperature;BME280_humidity;BME280_pressure;Samples;Min_cycle;Max_cycle;Signal;HPM_P1;HPM_P2
2023/06/02 04:22:34;;;;;;;5.07;3.28;;;;;;;12.96;90.04;100299.22;5089539;28;20393;-69
2023/06/02 04:25:00;;;;;;;4.57;2.70;;;;;;;12.82;90.62;100292.06;5088251;28;20121;-69
2023/06/02 04:27:25;;;;;;;4.55;3.33;;;;;;;12.89;90.55;100298.31;5088097;28;20492;-69
2023/06/02 04:29:51;;;;;;;5.93;3.15;;;;;;;12.98;90.06;100299.88;5070911;28;20129;-69
2023/06/02 04:32:16;;;;;;;3.65;2.70;;;;;;;13.08;89.63;100308.41;5088062;28;20072;-70
2023/06/02 04:34:42;;;;;;;5.22;3.33;;;;;;;13.10;89.50;100314.41;5088094;28;20033;-69
2023/06/02 04:37:08;;;;;;;4.47;3.00;;;;;;;13.14;89.70;100305.00;5087915;28;20089;-69
2023/06/02 04:39:35;;;;;;;3.85;2.60;;;;;;;13.24;88.74;100304.75;5087602;28;20113;-70
2023/06/02 04:42:03;;;;;;;5.93;3.28;;;;;;;13.12;89.20;100298.19;5087900;28;20043;-69
2023/06/02 04:44:29;;;;;;;7.90;3.67;;;;;;;13.21;88.83;100308.59;5087831;28;20052;-69
2023/06/02 04:46:55;;;;;;;6.50;3.75;;;;;;;13.20;88.46;100301.59;5088898;28;20507;-69
2023/06/02 04:49:21;;;;;;;8.30;4.30;;;;;;;13.04;88.94;100289.25;5087457;28;20051;-69
2023/06/02 04:51:46;;;;;;;5.68;3.50;;;;;;;13.11;89.58;100304.56;5087747;28;20131;-69
2023/06/02 04:54:15;;;;;;;5.13;3.25;;;;;;;12.97;89.49;100314.25;5087684;28;20123;-69
2023/06/02 04:56:41;;;;;;;4.75;3.20;;;;;;;13.00;90.56;100314.72;5087621;28;20060;-70
2023/06/02 04:59:11;;;;;;;4.35;3.10;;;;;;;13.11;89.52;100316.09;5087151;28;20485;-69
2023/06/02 05:01:37;;;;;;;4.50;2.83;;;;;;;13.26;88.76;100316.06;5087528;28;20039;-70
2023/06/02 05:04:04;;;;;;;5.68;3.30;;;;;;;13.15;88.16;100312.00;5088743;28;20032;-70
2023/06/02 05:06:30;;;;;;;4.70;3.35;;;;;;;13.22;88.79;100312.94;5087377;28;20032;-69
2023/06/02 05:08:55;;;;;;;4.35;2.83;;;;;;;13.23;88.24;100317.25;5087106;28;20036;-70
2023/06/02 05:11:23;;;;;;;4.55;3.03;;;;;;;13.19;88.65;100321.31;5087271;28;20496;-69
2023/06/02 05:13:48;;;;;;;4.68;2.97;;;;;;;13.27;87.99;100323.06;5087115;28;20524;-70
2023/06/02 05:16:14;;;;;;;4.90;3.03;;;;;;;13.27;88.09;100326.56;5087078;28;20036;-69
2023/06/02 05:18:40;;;;;;;5.45;3.47;;;;;;;13.33;87.62;100324.16;5086879;28;20036;-69
2023/06/02 05:21:06;;;;;;;5.07;2.95;;;;;;;13.48;86.06;100325.75;5086934;28;20425;-70
2023/06/02 05:23:31;;;;;;;4.80;2.65;;;;;;;13.38;86.42;100321.75;5087344;28;20082;-69
2023/06/02 05:25:57;;;;;;;5.75;2.60;;;;;;;13.50;86.32;100315.72;5086945;28;20036;-70
2023/06/02 05:28:22;;;;;;;4.82;2.70;;;;;;;13.48;86.62;100330.28;5088013;28;20032;-70
2023/06/02 05:30:49;;;;;;;4.10;3.10;;;;;;;13.61;85.21;100333.09;5087076;28;20554;-69
2023/06/02 05:33:14;;;;;;;5.95;3.50;;;;;;;13.67;84.83;100321.63;5077045;28;20048;-69
2023/06/02 05:35:40;;;;;;;3.70;2.63;;;;;;;13.78;84.37;100326.47;5074456;28;20375;-70
2023/06/02 05:38:07;;;;;;;4.50;2.67;;;;;;;13.76;83.94;100331.22;5073258;28;20066;-70
2023/06/02 05:40:33;;;;;;;4.72;3.10;;;;;;;13.85;83.45;100334.56;5072870;28;20040;-69
2023/06/02 05:42:59;;;;;;;3.72;2.80;;;;;;;13.65;83.46;100337.06;5073245;28;20669;-70
2023/06/02 05:45:24;;;;;;;5.18;2.92;;;;;;;13.64;83.94;100331.91;5074417;28;20040;-70
2023/06/02 05:47:51;;;;;;;5.38;2.92;;;;;;;13.81;83.60;100328.75;5073146;28;20025;-65
2023/06/02 05:50:18;;;;;;;4.40;2.70;;;;;;;13.80;83.52;100331.63;5072775;28;20037;-65
2023/06/02 05:52:43;;;;;;;3.47;2.65;;;;;;;13.88;83.01;100331.50;5074492;28;20037;-65
2023/06/02 05:55:10;;;;;;;3.80;2.47;;;;;;;13.92;82.70;100338.13;5073150;28;20039;-65
2023/06/02 05:57:37;;;;;;;3.75;2.50;;;;;;;14.04;82.28;100333.09;5093456;28;20056;-66
2023/06/02 06:00:06;;;;;;;4.82;3.10;;;;;;;13.97;82.33;100334.88;5092792;28;20127;-65
2023/06/02 06:02:38;;;;;;;3.40;2.30;;;;;;;14.04;81.89;100333.09;5094589;28;20044;-65
2023/06/02 06:05:05;;;;;;;3.25;2.75;;;;;;;14.18;81.12;100331.34;5083806;28;20493;-65
2023/06/02 06:07:30;;;;;;;4.88;2.67;;;;;;;14.26;80.37;100326.66;5069048;28;20033;-65
2023/06/02 06:09:56;;;;;;;3.60;2.38;;;;;;;14.15;81.04;100331.72;5070342;28;20082;-66
2023/06/02 06:12:22;;;;;;;4.30;2.70;;;;;;;14.17;81.21;100329.69;5072802;28;20152;-65
2023/06/02 06:14:48;;;;;;;3.00;2.13;;;;;;;14.32;80.51;100338.44;5072634;28;20036;-66
2023/06/02 06:17:13;;;;;;;3.20;2.50;;;;;;;14.22;81.10;100329.94;5073856;28;20044;-65
2023/06/02 06:19:38;;;;;;;3.60;2.83;;;;;;;14.39;80.34;100329.44;5072243;28;20409;-66
2023/06/02 06:22:04;;;;;;;3.90;2.28;;;;;;;14.41;79.95;100331.94;5073732;28;20123;-65
2023/06/02 06:24:31;;;;;;;4.47;2.55;;;;;;;14.49;79.27;100330.97;5072515;28;20094;-65
2023/06/02 06:26:57;;;;;;;4.20;2.25;;;;;;;14.55;80.70;100339.06;5069177;28;20041;-61
2023/06/02 06:29:22;;;;;;;4.88;2.50;;;;;;;14.48;79.08;100335.50;5076968;28;20099;-63
2023/06/02 06:31:48;;;;;;;4.47;2.55;;;;;;;14.62;79.39;100331.06;5080856;28;20393;-62
2023/06/02 06:34:13;;;;;;;3.65;2.33;;;;;;;14.68;78.81;100341.00;5056608;28;20048;-63
2023/06/02 06:36:39;;;;;;;3.20;2.30;;;;;;;14.83;77.89;100341.69;5073452;28;20037;-61
2023/06/02 06:39:05;;;;;;;3.00;2.22;;;;;;;14.80;77.70;100334.06;5064294;28;20086;-66
2023/06/02 06:41:34;;;;;;;3.00;2.08;;;;;;;14.86;77.77;100335.91;5057498;28;20041;-66
2023/06/02 06:44:01;;;;;;;4.95;2.67;;;;;;;14.89;76.71;100338.22;5051173;28;20074;-65
2023/06/02 06:46:26;;;;;;;3.65;2.67;;;;;;;14.90;76.61;100331.81;5051890;28;20064;-65
2023/06/02 06:48:52;;;;;;;3.58;2.78;;;;;;;14.95;76.02;100336.59;5054378;28;20031;-65
2023/06/02 06:51:17;;;;;;;3.50;2.28;;;;;;;15.00;77.10;100331.47;5063721;28;20411;-65
2023/06/02 06:53:43;;;;;;;3.13;2.40;;;;;;;15.24;74.96;100346.19;5070481;28;20036;-66
2023/06/02 06:56:08;;;;;;;4.85;2.70;;;;;;;15.09;74.59;100340.97;5073338;28;20043;-64
2023/06/02 06:58:34;;;;;;;3.70;2.42;;;;;;;15.12;74.45;100342.41;5072764;28;20087;-64
2023/06/02 07:00:59;;;;;;;3.15;2.15;;;;;;;15.34;74.58;100346.66;5073170;28;20040;-64
2023/06/02 07:03:25;;;;;;;3.30;2.20;;;;;;;15.35;73.61;100350.97;5072965;28;20037;-64
2023/06/02 07:05:50;;;;;;;3.38;2.38;;;;;;;15.41;72.29;100352.84;5072972;28;20423;-64
2023/06/02 07:08:16;;;;;;;4.20;2.58;;;;;;;15.54;72.27;100351.25;5072786;28;20041;-63
2023/06/02 07:10:41;;;;;;;2.75;1.95;;;;;;;15.49;72.90;100359.91;5072561;28;20099;-64
2023/06/02 07:13:06;;;;;;;3.33;2.42;;;;;;;15.46;72.46;100358.47;5072784;28;20157;-64
2023/06/02 07:15:32;;;;;;;3.05;2.50;;;;;;;15.52;72.56;100358.66;5072468;28;20056;-65
2023/06/02 07:17:57;;;;;;;3.13;2.20;;;;;;;15.31;73.42;100357.78;5069897;28;20040;-65
2023/06/02 07:20:23;;;;;;;3.65;2.45;;;;;;;15.34;72.61;100353.88;5065096;28;20051;-64
2023/06/02 07:22:48;;;;;;;4.45;2.42;;;;;;;15.54;73.64;100356.63;5062014;28;20044;-64
2023/06/02 07:25:13;;;;;;;5.15;2.53;;;;;;;15.79;71.49;100349.69;5069638;28;20124;-65
2023/06/02 07:27:39;;;;;;;4.25;2.83;;;;;;;15.84;71.75;100365.16;5072583;28;20447;-62
2023/06/02 07:30:05;;;;;;;3.05;2.42;;;;;;;15.88;72.48;100361.03;5072123;28;20094;-54
2023/06/02 07:32:30;;;;;;;3.75;2.60;;;;;;;15.75;71.26;100348.41;5072478;28;20086;-67
2023/06/02 07:34:56;;;;;;;3.55;2.35;;;;;;;15.82;71.53;100349.25;5055713;28;20045;-66
2023/06/02 07:37:21;;;;;;;3.42;2.28;;;;;;;16.02;71.62;100349.25;5052239;28;20048;-66
2023/06/02 07:39:47;;;;;;;3.03;2.30;;;;;;;15.93;70.58;100354.03;5052178;28;20025;-65
2023/06/02 07:42:12;;;;;;;3.20;2.40;;;;;;;16.09;71.25;100354.63;5052312;28;20501;-66
2023/06/02 07:44:38;;;;;;;3.88;2.67;;;;;;;16.19;70.49;100355.88;5052312;28;20537;-67
2023/06/02 07:47:06;;;;;;;3.25;2.30;;;;;;;16.11;69.11;100356.09;5052079;28;20040;-67
2023/06/02 07:49:33;;;;;;;2.72;2.30;;;;;;;16.23;69.17;100354.41;5051866;28;20041;-67
2023/06/02 07:51:59;;;;;;;4.15;2.47;;;;;;;16.31;69.11;100361.47;5052023;28;20056;-68
2023/06/02 07:54:24;;;;;;;3.22;2.00;;;;;;;16.50;68.63;100360.63;5052005;28;20502;-66
2023/06/02 07:56:50;;;;;;;5.72;2.17;;;;;;;16.50;68.84;100357.94;5051785;28;20064;-66
2023/06/02 07:59:18;;;;;;;5.93;2.97;;;;;;;16.40;67.54;100352.16;5051701;28;20106;-65
2023/06/02 08:01:44;;;;;;;3.92;2.80;;;;;;;16.42;67.09;100344.69;5051896;28;20037;-66
2023/06/02 08:04:10;;;;;;;3.75;2.63;;;;;;;16.61;68.00;100342.19;5051838;28;20037;-65
2023/06/02 08:06:35;;;;;;;4.07;2.67;;;;;;;16.70;67.07;100347.19;5052841;28;20041;-65
2023/06/02 08:09:01;;;;;;;3.60;2.65;;;;;;;16.91;65.86;100350.63;5071655;28;20036;-65
2023/06/02 08:11:26;;;;;;;3.63;2.42;;;;;;;16.99;65.25;100343.13;5071552;28;20040;-65
2023/06/02 08:13:51;;;;;;;3.78;2.90;;;;;;;16.67;65.72;100346.72;5071598;28;20108;-65
2023/06/02 08:16:17;;;;;;;3.78;2.92;;;;;;;16.82;65.97;100347.31;5055062;28;20032;-66
2023/06/02 08:18:42;;;;;;;4.13;2.72;;;;;;;17.16;66.28;100342.66;5060352;28;20493;-65
2023/06/02 08:21:08;;;;;;;4.63;2.65;;;;;;;16.99;65.05;100335.06;5063004;28;20029;-65
2023/06/02 08:23:33;;;;;;;5.38;2.53;;;;;;;17.20;65.09;100333.13;5071723;28;20048;-65
2023/06/02 08:25:59;;;;;;;4.22;2.53;;;;;;;17.31;64.25;100341.34;5071669;28;20032;-65
2023/06/02 08:28:27;;;;;;;4.43;2.97;;;;;;;17.29;63.97;100340.75;5071350;28;20051;-65
2023/06/02 08:30:58;;;;;;;;;;;;;;;17.13;63.15;100329.63;5060214;28;20032;-66
2023/06/02 08:33:23;;;;;;;3.10;2.53;;;;;;;17.31;63.14;100329.75;5061573;28;20007;-66
2023/06/02 08:35:50;;;;;;;3.35;2.75;;;;;;;17.62;62.09;100332.47;5061476;28;20059;-65
2023/06/02 08:38:19;;;;;;;2.88;2.05;;;;;;;17.55;60.86;100323.63;5059865;28;20036;-66
2023/06/02 08:40:47;;;;;;;5.20;2.97;;;;;;;17.43;60.49;100325.34;5060989;28;20055;-66
2023/06/02 08:43:13;;;;;;;4.05;2.55;;;;;;;17.51;60.67;100322.38;5061944;28;20037;-66
2023/06/02 08:45:43;;;;;;;3.55;2.70;;;;;;;17.72;60.50;100320.41;5059994;28;20037;-66
2023/06/02 08:48:15;;;;;;;4.35;2.53;;;;;;;17.82;59.88;100326.16;5052677;28;20082;-66
2023/06/02 08:50:44;;;;;;;6.40;2.88;;;;;;;17.89;60.12;100324.22;5051396;28;20111;-66
2023/06/02 08:53:15;;;;;;;4.10;2.72;;;;;;;18.06;58.90;100328.03;5051532;28;20029;-65
2023/06/02 08:55:42;;;;;;;4.88;2.78;;;;;;;18.13;58.41;100320.72;5051443;28;20099;-66
2023/06/02 08:58:11;;;;;;;4.63;2.60;;;;;;;18.16;58.15;100325.66;5051374;28;20044;-65
2023/06/02 09:00:37;;;;;;;5.40;2.70;;;;;;;18.49;57.49;100331.78;5051101;28;20073;-66
2023/06/02 09:03:04;;;;;;;4.57;2.40;;;;;;;18.62;56.81;100337.88;5051425;28;20120;-66
2023/06/02 09:05:30;;;;;;;6.55;2.95;;;;;;;18.21;56.98;100340.34;5051298;28;20040;-66
2023/06/02 09:08:10;;;;;;;3.58;2.63;;;;;;;18.47;56.37;100328.50;5052978;28;20448;-67
2023/06/02 09:10:40;;;;;;;3.38;2.92;;;;;;;18.58;55.77;100325.91;5054696;28;20554;-66
2023/06/02 09:13:09;;;;;;;3.45;2.53;;;;;;;19.03;54.53;100322.91;5054968;28;20051;-66
2023/06/02 09:15:36;;;;;;;3.72;2.78;;;;;;;18.89;53.71;100324.13;5054850;28;20048;-67
2023/06/02 09:18:12;;;;;;;5.43;3.50;;;;;;;19.16;54.60;100316.50;5055027;28;20037;-66
2023/06/02 09:20:39;;;;;;;2.97;2.45;;;;;;;19.50;53.84;100323.13;5054561;28;20128;-67
2023/06/02 09:23:05;;;;;;;4.20;3.00;;;;;;;19.57;51.71;100313.03;5054863;28;20040;-67
2023/06/02 09:25:33;;;;;;;6.25;2.92;;;;;;;19.81;51.29;100311.22;5054797;28;20059;-66
2023/06/02 09:28:00;;;;;;;3.72;2.10;;;;;;;20.13;51.37;100316.34;5054753;28;20040;-66
2023/06/02 09:30:28;;;;;;;3.50;2.60;;;;;;;19.91;51.34;100319.59;5054403;28;20082;-59
2023/06/02 09:32:55;;;;;;;4.40;2.75;;;;;;;19.90;52.49;100323.38;5054774;28;20033;-61
2023/06/02 09:35:41;;;;;;;3.90;2.55;;;;;;;19.76;49.92;100314.66;5053330;28;20078;-60
2023/06/02 09:38:11;;;;;;;4.40;3.28;;;;;;;19.80;50.27;100315.00;5054521;28;20112;-60
2023/06/02 09:40:38;;;;;;;4.30;3.20;;;;;;;20.36;49.04;100315.53;5054318;28;20461;-60
2023/06/02 09:43:05;;;;;;;5.10;3.15;;;;;;;20.60;48.89;100317.16;5054640;28;20033;-61
2023/06/02 09:45:58;;;;;;;5.40;3.17;;;;;;;20.46;48.96;100313.88;5054407;28;20155;-61
2023/06/02 09:48:23;;;;;;;5.00;2.60;;;;;;;20.83;48.00;100319.84;5054213;28;20029;-61
2023/06/02 09:50:49;;;;;;;4.65;2.92;;;;;;;20.87;47.61;100317.50;5054276;28;20147;-61
2023/06/02 09:53:17;;;;;;;5.88;2.83;;;;;;;20.92;48.03;100305.94;5054200;28;20029;-62
2023/06/02 09:55:44;;;;;;;4.97;2.65;;;;;;;21.16;48.12;100310.22;5054147;28;20075;-62
2023/06/02 09:58:10;;;;;;;4.32;2.33;;;;;;;21.11;46.39;100307.41;5054100;28;20041;-62
2023/06/02 10:00:35;;;;;;;3.95;2.50;;;;;;;21.17;47.32;100311.03;5052682;28;20044;-63
2023/06/02 10:03:01;;;;;;;6.80;3.25;;;;;;;21.31;46.42;100302.41;5054086;28;20025;-60
2023/06/02 10:05:28;;;;;;;4.60;2.85;;;;;;;21.06;46.18;100305.44;5054025;28;20041;-61
2023/06/02 10:08:00;;;;;;;3.47;2.75;;;;;;;21.01;46.45;100316.16;5054155;28;20048;-63
2023/06/02 10:10:38;;;;;;;4.30;2.78;;;;;;;21.63;45.79;100316.25;5053557;28;20052;-63
2023/06/02 10:13:33;;;;;;;3.55;2.85;;;;;;;22.03;45.46;100319.91;5054009;28;20116;-63
2023/06/02 10:16:01;;;;;;;3.05;2.33;;;;;;;22.29;44.48;100308.41;5053783;28;20083;-62
2023/06/02 10:18:32;;;;;;;3.80;2.75;;;;;;;22.52;42.80;100306.56;5053449;28;20033;-63
2023/06/02 10:21:09;;;;;;;3.13;2.55;;;;;;;22.46;42.55;100294.81;5053801;28;20427;-63
2023/06/02 10:23:46;;;;;;;4.63;3.08;;;;;;;22.98;42.23;100316.97;5053923;28;20040;-63
2023/06/02 10:26:36;;;;;;;5.22;2.50;;;;;;;22.81;42.66;100316.19;5064138;28;20402;-62
2023/06/02 10:29:04;;;;;;;3.20;2.60;;;;;;;23.12;42.27;100297.56;5073352;28;20032;-62
2023/06/02 10:31:31;;;;;;;5.30;2.58;;;;;;;23.47;41.54;100305.28;5073565;28;20036;-62
2023/06/02 10:33:59;;;;;;;4.00;2.45;;;;;;;23.58;41.18;100298.03;5073602;28;20097;-64
2023/06/02 10:36:25;;;;;;;4.90;2.78;;;;;;;23.62;40.18;100294.59;5073497;28;20045;-63
2023/06/02 10:38:51;;;;;;;7.50;3.03;;;;;;;23.42;40.07;100287.03;5073140;28;20036;-63
2023/06/02 10:41:21;;;;;;;4.25;2.42;;;;;;;22.92;40.89;100288.13;5073449;28;20109;-62
2023/06/02 10:44:25;;;;;;;3.13;2.53;;;;;;;23.69;40.23;100287.03;5073309;28;20036;-62
2023/06/02 10:47:18;;;;;;;3.97;2.65;;;;;;;23.90;40.20;100285.31;5073091;28;20074;-63
2023/06/02 10:49:50;;;;;;;3.42;2.75;;;;;;;24.35;38.90;100289.47;5072897;28;20509;-62
2023/06/02 10:52:16;;;;;;;4.45;2.25;;;;;;;24.57;38.66;100281.94;5073207;28;20436;-62
2023/06/02 10:54:41;;;;;;;4.70;2.70;;;;;;;24.82;37.69;100278.50;5073037;28;20040;-61
2023/06/02 10:57:09;;;;;;;3.33;2.60;;;;;;;25.07;37.36;100272.38;5073103;28;20036;-62
2023/06/02 10:59:36;;;;;;;3.30;2.65;;;;;;;24.99;37.66;100264.69;5072823;28;20106;-62
2023/06/02 11:02:03;;;;;;;4.05;2.70;;;;;;;25.59;37.16;100262.38;5073145;28;20025;-62
2023/06/02 11:04:32;;;;;;;3.58;2.25;;;;;;;25.81;36.29;100249.28;5072996;28;20040;-61
2023/06/02 11:07:25;;;;;;;2.78;2.35;;;;;;;26.17;36.17;100266.44;5072844;28;20385;-63
2023/06/02 11:09:59;;;;;;;3.60;2.45;;;;;;;25.75;37.05;100260.47;5072377;28;20032;-62
2023/06/02 11:12:49;;;;;;;3.80;2.50;;;;;;;26.22;36.63;100257.44;5072655;28;20512;-62
2023/06/02 11:15:16;;;;;;;3.92;2.75;;;;;;;26.74;35.73;100257.03;5072751;28;20516;-62
2023/06/02 11:17:42;;;;;;;3.65;2.50;;;;;;;26.93;35.09;100254.47;5072715;28;20028;-64
2023/06/02 11:20:08;;;;;;;3.15;2.40;;;;;;;26.93;34.33;100259.94;5072220;28;20079;-61
2023/06/02 11:22:34;;;;;;;3.75;2.65;;;;;;;26.58;33.04;100252.69;5072505;28;20052;-63
2023/06/02 11:25:01;;;;;;;3.38;2.17;;;;;;;26.44;33.59;100263.41;5072489;28;20033;-63
2023/06/02 11:27:40;;;;;;;2.83;2.20;;;;;;;26.86;34.14;100253.94;5072277;28;20028;-62
2023/06/02 11:30:08;;;;;;;4.13;2.72;;;;;;;26.95;33.13;100263.19;5071729;28;20108;-62
2023/06/02 11:32:34;;;;;;;4.75;2.40;;;;;;;27.16;33.52;100254.91;5072816;28;20048;-62
2023/06/02 11:35:07;;;;;;;2.22;2.03;;;;;;;26.99;33.66;100253.31;5071354;28;20035;-60
2023/06/02 11:37:40;;;;;;;3.88;2.45;;;;;;;26.69;34.47;100243.38;5073490;28;20033;-62
2023/06/02 11:40:09;;;;;;;4.18;2.63;;;;;;;27.38;32.46;100251.75;5071194;28;20070;-61
2023/06/02 11:42:41;;;;;;;3.10;2.60;;;;;;;27.60;33.05;100252.13;5071650;28;20044;-61
2023/06/02 11:45:22;;;;;;;4.00;2.30;;;;;;;27.76;32.03;100259.13;5072636;28;20044;-60
2023/06/02 11:47:59;;;;;;;3.28;2.47;;;;;;;27.25;33.06;100250.47;5072500;28;20527;-62
2023/06/02 11:50:25;;;;;;;3.17;2.50;;;;;;;27.29;32.85;100243.34;5073226;28;20561;-61
2023/06/02 11:52:50;;;;;;;2.97;2.20;;;;;;;28.26;32.06;100245.25;5072154;28;20024;-63
2023/06/02 11:55:16;;;;;;;4.82;2.40;;;;;;;27.93;33.25;100236.81;5071942;28;20393;-62
2023/06/02 11:57:43;;;;;;;6.03;2.55;;;;;;;27.59;32.24;100234.09;5071974;28;20063;-62
2023/06/02 12:00:15;;;;;;;2.58;2.15;;;;;;;27.77;32.07;100222.44;5071639;28;20138;-63
2023/06/02 12:02:44;;;;;;;3.28;2.20;;;;;;;27.99;32.76;100223.91;5071099;28;20474;-62
2023/06/02 12:05:27;;;;;;;2.38;2.15;;;;;;;27.78;32.03;100220.56;5071647;28;20178;-61
2023/06/02 12:07:53;;;;;;;4.45;2.40;;;;;;;27.98;32.31;100214.06;5071654;28;20098;-62
2023/06/02 12:10:18;;;;;;;3.05;2.20;;;;;;;27.94;31.86;100219.28;5070811;28;20032;-62
2023/06/02 12:12:47;;;;;;;2.65;2.17;;;;;;;27.98;32.16;100212.16;5071601;28;20043;-62
2023/06/02 12:15:14;;;;;;;3.78;2.38;;;;;;;28.44;32.25;100210.84;5071554;28;20047;-62
2023/06/02 12:17:41;;;;;;;2.42;2.13;;;;;;;29.03;31.13;100210.34;5071372;28;20037;-62
2023/06/02 12:20:07;;;;;;;;;;;;;;;28.61;31.45;100209.22;5071270;28;20662;-60
2023/06/02 12:22:32;;;;;;;3.55;2.25;;;;;;;28.63;30.70;100218.00;5071710;28;19919;-62
2023/06/02 12:25:10;;;;;;;3.95;2.15;;;;;;;28.72;30.41;100218.13;5071468;28;20036;-61
2023/06/02 12:27:36;;;;;;;4.20;2.47;;;;;;;29.10;29.44;100220.94;5062651;28;20040;-62
2023/06/02 12:30:01;;;;;;;3.17;2.20;;;;;;;28.44;30.35;100213.59;5062193;28;20490;-61
2023/06/02 12:32:27;;;;;;;3.47;2.03;;;;;;;28.51;30.23;100208.56;5059903;28;20082;-61
2023/06/02 12:34:53;;;;;;;5.50;2.35;;;;;;;28.09;31.66;100221.03;5060197;28;20043;-59
2023/06/02 12:37:18;;;;;;;4.97;2.92;;;;;;;28.19;31.02;100220.94;5061464;28;20067;-61
2023/06/02 12:39:44;;;;;;;2.70;2.20;;;;;;;28.52;30.56;100212.94;5058946;28;20056;-60
2023/06/02 12:42:13;;;;;;;4.72;2.60;;;;;;;27.34;31.15;100217.88;5062528;28;20031;-61
2023/06/02 12:44:38;;;;;;;3.30;2.45;;;;;;;27.71;31.14;100209.94;5065553;28;20114;-62
2023/06/02 12:47:06;;;;;;;2.85;2.42;;;;;;;28.12;31.18;100209.53;5062862;28;20082;-62
2023/06/02 12:49:31;;;;;;;3.97;2.30;;;;;;;28.62;31.25;100210.03;5065087;28;20111;-60
2023/06/02 12:51:57;;;;;;;2.88;2.58;;;;;;;29.31;29.96;100204.97;5062774;28;20051;-59
2023/06/02 12:54:22;;;;;;;3.78;2.38;;;;;;;28.41;30.28;100220.44;5066489;28;20044;-60
2023/06/02 12:56:49;;;;;;;3.13;2.42;;;;;;;27.77;31.56;100216.16;5068553;28;20040;-60
2023/06/02 12:59:14;;;;;;;2.77;2.40;;;;;;;28.28;30.77;100221.13;5064243;28;20386;-60
2023/06/02 13:01:41;;;;;;;3.83;2.25;;;;;;;29.25;30.08;100212.47;5063574;28;20274;-60
2023/06/02 13:04:07;;;;;;;5.37;2.87;;;;;;;28.42;30.71;100219.34;5063676;28;20508;-59
2023/06/02 13:06:34;;;;;;;4.00;2.63;;;;;;;28.03;30.50;100216.72;5038842;28;20445;-60
2023/06/02 13:09:00;;;;;;;3.67;2.45;;;;;;;28.67;29.94;100216.28;5064072;28;20474;-61
2023/06/02 13:11:26;;;;;;;3.15;2.40;;;;;;;28.51;29.86;100211.31;5063617;28;20571;-62
2023/06/02 13:13:51;;;;;;;3.95;2.63;;;;;;;28.29;29.84;100215.34;5066482;28;20124;-59
2023/06/02 13:16:17;;;;;;;4.93;2.22;;;;;;;27.12;31.79;100212.81;5063642;28;20471;-60
2023/06/02 13:18:46;;;;;;;3.92;2.30;;;;;;;27.17;32.45;100207.34;5048512;28;20041;-59
2023/06/02 13:21:12;;;;;;;4.95;3.03;;;;;;;26.80;32.63;100216.84;5063809;28;20486;-60
2023/06/02 13:23:37;;;;;;;3.30;2.35;;;;;;;26.45;33.75;100215.88;5064500;28;20037;-58
2023/06/02 13:26:03;;;;;;;4.57;2.40;;;;;;;26.15;34.27;100197.69;5062792;28;20037;-61
2023/06/02 13:28:30;;;;;;;3.78;2.58;;;;;;;25.54;34.69;100199.63;5062761;28;20041;-61
2023/06/02 13:30:56;;;;;;;3.90;2.65;;;;;;;26.02;33.78;100206.44;5054739;28;20049;-60
2023/06/02 13:33:21;;;;;;;3.65;2.88;;;;;;;25.96;34.43;100202.09;5054706;28;20490;-60
2023/06/02 13:35:51;;;;;;;6.90;2.75;;;;;;;26.03;33.70;100199.88;5054678;28;20036;-62
2023/06/02 13:38:17;;;;;;;3.45;2.83;;;;;;;25.12;34.66;100198.81;5054467;28;20056;-61
2023/06/02 13:40:44;;;;;;;3.20;2.67;;;;;;;24.72;35.36;100198.69;5054636;28;20041;-60
2023/06/02 13:43:09;;;;;;;3.25;2.95;;;;;;;24.79;35.81;100197.34;5054697;28;20456;-60
2023/06/02 13:45:35;;;;;;;3.70;2.40;;;;;;;24.51;35.48;100184.16;5054491;28;20124;-60
2023/06/02 13:48:02;;;;;;;3.30;2.58;;;;;;;24.82;35.63;100191.34;5054537;28;20036;-60
2023/06/02 13:50:27;;;;;;;3.22;2.28;;;;;;;24.96;36.09;100194.38;5053912;28;20124;-61
2023/06/02 13:52:53;;;;;;;3.17;2.70;;;;;;;24.90;35.23;100181.84;5053990;28;20033;-59
2023/06/02 13:55:18;;;;;;;4.00;2.95;;;;;;;24.58;35.37;100179.28;5054082;28;20513;-59
2023/06/02 13:57:43;;;;;;;4.07;2.58;;;;;;;24.16;36.13;100184.81;5054244;28;20033;-59
2023/06/02 14:00:10;;;;;;;3.03;2.22;;;;;;;24.52;36.27;100170.31;5054006;28;20032;-60
2023/06/02 14:02:38;;;;;;;3.45;2.60;;;;;;;24.60;37.46;100171.69;5054481;28;20128;-63
2023/06/02 14:05:05;;;;;;;3.90;2.65;;;;;;;24.59;38.17;100173.59;5053942;28;20115;-59
2023/06/02 14:07:31;;;;;;;;;;;;;;;24.59;36.26;100173.59;5054611;28;20091;-56
2023/06/02 14:09:57;;;;;;;5.20;2.95;;;;;;;24.37;37.72;100170.25;5053740;28;19916;-60
2023/06/02 14:12:22;;;;;;;3.95;2.10;;;;;;;24.38;36.13;100168.34;5052691;28;20067;-57
2023/06/02 14:14:47;;;;;;;2.25;2.03;;;;;;;24.35;37.71;100167.78;5053951;28;20090;-61
2023/06/02 14:17:13;;;;;;;9.43;2.67;;;;;;;24.28;36.19;100171.81;5053798;28;20082;-57
2023/06/02 14:19:39;;;;;;;4.18;2.38;;;;;;;24.23;39.12;100166.34;5053664;28;20041;-60
2023/06/02 14:22:04;;;;;;;2.60;2.10;;;;;;;24.00;36.59;100160.25;5053696;28;20041;-58
2023/06/02 14:24:29;;;;;;;4.35;2.22;;;;;;;23.85;38.47;100165.59;5053854;28;20037;-60
2023/06/02 14:26:56;;;;;;;3.55;2.40;;;;;;;23.90;36.69;100153.94;5053564;28;20045;-60
2023/06/02 14:29:22;;;;;;;3.23;2.30;;;;;;;24.02;38.46;100158.09;5053618;28;20727;-60
2023/06/02 14:31:48;;;;;;;3.58;2.40;;;;;;;24.02;37.53;100155.34;5053578;28;20033;-59
2023/06/02 14:34:13;;;;;;;3.38;2.50;;;;;;;24.05;37.24;100151.28;5053545;28;20158;-59
2023/06/02 14:36:38;;;;;;;3.30;2.22;;;;;;;24.01;37.60;100155.63;5053686;28;20405;-60
2023/06/02 14:39:04;;;;;;;3.25;2.55;;;;;;;24.17;37.95;100146.44;5053275;28;20048;-60
2023/06/02 14:41:29;;;;;;;3.42;2.30;;;;;;;23.98;36.50;100145.25;5053467;28;20029;-59
2023/06/02 14:43:55;;;;;;;4.70;2.30;;;;;;;24.07;35.99;100143.69;5053408;28;20070;-60
2023/06/02 14:46:20;;;;;;;3.13;2.38;;;;;;;23.96;37.57;100142.81;5053396;28;20049;-60
2023/06/02 14:48:46;;;;;;;4.05;2.45;;;;;;;23.93;37.27;100134.34;5052788;28;20122;-58
2023/06/02 14:51:11;;;;;;;2.67;2.20;;;;;;;23.92;38.44;100132.72;5053090;28;20052;-60
2023/06/02 14:53:36;;;;;;;5.00;2.55;;;;;;;23.90;38.18;100129.44;5053139;28;20068;-61
2023/06/02 14:56:02;;;;;;;3.20;2.20;;;;;;;23.99;38.26;100131.38;5052903;28;20045;-61
2023/06/02 14:58:27;;;;;;;6.10;2.08;;;;;;;23.81;37.61;100127.25;5052666;28;20044;-59
2023/06/02 15:00:53;;;;;;;4.38;2.45;;;;;;;23.57;38.14;100128.69;5053022;28;20047;-59
2023/06/02 15:03:19;;;;;;;2.53;2.33;;;;;;;23.53;38.73;100127.56;5052871;28;20033;-61
2023/06/02 15:05:45;;;;;;;3.85;2.40;;;;;;;23.56;39.11;100117.00;5052032;28;20044;-62
2023/06/02 15:08:11;;;;;;;2.45;2.20;;;;;;;23.73;39.12;100118.75;5052945;28;20155;-59
2023/06/02 15:10:36;;;;;;;3.42;2.25;;;;;;;23.75;39.58;100119.31;5052546;28;20040;-61
2023/06/02 15:13:02;;;;;;;4.82;2.40;;;;;;;23.91;39.43;100121.03;5052793;28;20033;-60
2023/06/02 15:15:27;;;;;;;2.42;2.10;;;;;;;23.99;38.41;100114.25;5052445;28;20509;-61
2023/06/02 15:17:52;;;;;;;3.92;2.25;;;;;;;23.90;38.66;100111.22;5052684;28;20052;-59
2023/06/02 15:20:20;;;;;;;3.35;2.30;;;;;;;23.67;38.78;100106.19;5052133;28;20069;-59
2023/06/02 15:22:45;;;;;;;;;;;;;;;23.75;38.79;100101.09;5053116;28;20039;-60
2023/06/02 15:25:11;;;;;;;3.20;2.15;;;;;;;23.68;39.71;100102.41;5052515;28;20012;-59
2023/06/02 15:27:38;;;;;;;4.28;2.47;;;;;;;23.71;39.60;100094.53;5052649;28;20048;-58
2023/06/02 15:30:04;;;;;;;3.38;2.63;;;;;;;23.74;39.57;100095.94;5052269;28;20036;-58
2023/06/02 15:32:29;;;;;;;6.30;3.03;;;;;;;23.58;39.41;100100.41;5051172;28;20467;-59
2023/06/02 15:34:54;;;;;;;4.85;2.25;;;;;;;23.63;38.70;100086.88;5052489;28;20537;-57
2023/06/02 15:37:20;;;;;;;3.72;2.75;;;;;;;23.64;39.45;100104.00;5052203;28;20142;-57
2023/06/02 15:39:45;;;;;;;3.30;2.50;;;;;;;23.47;39.32;100101.41;5052145;28;20033;-58
2023/06/02 15:42:11;;;;;;;6.95;2.53;;;;;;;23.27;39.41;100104.81;5052355;28;20044;-59
2023/06/02 15:44:36;;;;;;;5.97;2.85;;;;;;;23.14;39.54;100102.53;5052316;28;20543;-51
2023/06/02 15:47:02;;;;;;;3.00;2.40;;;;;;;23.26;40.05;100097.75;5052125;28;20041;-64
2023/06/02 15:49:28;;;;;;;5.22;2.60;;;;;;;23.10;39.53;100096.81;5051916;28;20041;-65